createdAt,value
2023-03-26T00:56:35.286Z,25.00
2023-03-26T01:00:36.255Z,25.00
2023-03-26T01:04:36.647Z,0.00
2023-03-26T01:08:36.424Z,23.80
2023-03-26T01:12:36.412Z,25.00
2023-03-26T01:16:36.349Z,25.00
2023-03-26T01:20:36.318Z,29.89
2023-03-26T01:24:36.297Z,29.28
2023-03-26T01:28:36.268Z,25.00
2023-03-26T01:32:36.604Z,27.43
2023-03-26T01:36:36.414Z,25.48
2023-03-26T01:40:36.373Z,27.97
2023-03-26T01:44:36.369Z,28.34
2023-03-26T01:48:36.384Z,27.36
2023-03-26T01:52:36.270Z,29.80
2023-03-26T01:56:36.231Z,28.32
2023-03-26T02:00:36.478Z,30.55
2023-03-26T02:04:36.411Z,31.95
2023-03-26T02:08:36.383Z,27.47
2023-03-26T02:12:36.341Z,26.96
2023-03-26T02:16:36.346Z,28.56
2023-03-26T02:20:36.266Z,30.99
2023-03-26T02:24:36.230Z,30.55
2023-03-26T02:28:36.434Z,29.47
2023-03-26T02:32:36.425Z,28.64
2023-03-26T02:36:36.442Z,28.94
2023-03-26T02:40:36.311Z,26.69
2023-03-26T02:44:36.266Z,26.03
2023-03-26T02:48:36.278Z,31.67
2023-03-26T02:52:36.200Z,28.41
2023-03-26T02:56:36.178Z,31.51
2023-03-26T03:00:36.274Z,31.48
2023-03-26T03:04:36.100Z,29.67
2023-03-26T03:08:36.279Z,29.26
2023-03-26T03:12:35.999Z,30.47
2023-03-26T03:16:36.007Z,28.83
2023-03-26T03:20:35.950Z,29.52
2023-03-26T03:24:35.887Z,31.27
2023-03-26T03:28:35.860Z,31.75
2023-03-26T03:32:35.846Z,29.93
2023-03-26T03:36:35.802Z,29.69
2023-03-26T03:40:35.738Z,32.85
2023-03-26T03:44:35.937Z,26.67
2023-03-26T03:48:36.297Z,29.77
2023-03-26T03:52:35.894Z,29.40
2023-03-26T03:56:35.935Z,32.14
2023-03-26T04:00:35.798Z,32.34
2023-03-26T04:04:35.820Z,29.43
2023-03-26T04:08:35.780Z,31.45
2023-03-26T04:12:35.717Z,31.76
2023-03-26T04:16:35.716Z,27.48
2023-03-26T04:20:35.648Z,31.57
2023-03-26T04:24:35.629Z,32.68
2023-03-26T04:28:35.573Z,32.10
2023-03-26T04:32:35.837Z,32.28
2023-03-26T04:36:35.728Z,29.68
2023-03-26T04:40:35.689Z,30.24
2023-03-26T04:44:35.625Z,30.65
2023-03-26T04:48:36.312Z,29.16
2023-03-26T04:52:35.554Z,29.53
2023-03-26T04:56:35.565Z,32.49
2023-03-26T05:00:35.663Z,32.24
2023-03-26T05:04:35.883Z,32.44
2023-03-26T05:08:35.592Z,31.97
2023-03-26T05:12:35.566Z,32.66
2023-03-26T05:16:35.536Z,30.37
2023-03-26T05:20:35.465Z,31.92
2023-03-26T05:24:35.682Z,30.42
2023-03-26T05:28:35.857Z,32.66
2023-03-26T05:32:35.940Z,34.23
2023-03-26T05:36:35.564Z,32.56
2023-03-26T05:40:35.529Z,31.48
2023-03-26T05:44:35.520Z,32.69
2023-03-26T05:48:35.520Z,31.50
2023-03-26T05:52:36.335Z,28.28
2023-03-26T05:56:35.495Z,29.66
2023-03-26T06:00:35.460Z,31.44
2023-03-26T06:04:35.973Z,29.32
2023-03-26T06:08:35.531Z,30.41
2023-03-26T06:12:35.498Z,30.56
2023-03-26T06:16:35.539Z,31.72
2023-03-26T06:20:35.844Z,31.47
2023-03-26T06:24:35.386Z,30.76
2023-03-26T06:28:35.347Z,35.00
2023-03-26T06:32:35.579Z,31.59
2023-03-26T06:36:35.460Z,34.36
2023-03-26T06:40:35.445Z,34.90
2023-03-26T06:44:35.401Z,32.86
2023-03-26T06:48:35.393Z,33.21
2023-03-26T06:52:35.312Z,32.79
2023-03-26T06:56:35.387Z,32.44
2023-03-26T07:00:35.381Z,33.51
2023-03-26T07:04:35.614Z,29.93
2023-03-26T07:08:35.869Z,30.36
2023-03-26T07:12:35.869Z,32.09
2023-03-26T07:16:35.566Z,31.67
2023-03-26T07:20:35.926Z,34.69
2023-03-26T07:24:35.418Z,33.47
2023-03-26T07:28:35.493Z,33.48
2023-03-26T07:32:35.901Z,34.96
2023-03-26T07:36:35.951Z,34.47
2023-03-26T07:40:36.185Z,35.85
2023-03-26T07:44:36.327Z,34.67
2023-03-26T07:48:36.694Z,30.54
2023-03-26T07:52:36.907Z,32.01
2023-03-26T07:56:36.975Z,32.98
2023-03-26T08:00:37.030Z,33.30
2023-03-26T08:04:37.293Z,33.93
2023-03-26T08:08:37.409Z,33.79
2023-03-26T08:12:37.548Z,37.16
2023-03-26T08:16:37.728Z,35.53
2023-03-26T08:20:37.856Z,35.33
2023-03-26T08:24:38.023Z,36.07
2023-03-26T08:28:38.524Z,35.33
2023-03-26T08:32:38.541Z,37.22
2023-03-26T08:36:38.506Z,31.67
2023-03-26T08:40:38.634Z,33.70
2023-03-26T08:44:38.768Z,32.95
2023-03-26T08:48:38.948Z,35.11
2023-03-26T08:52:39.106Z,34.93
2023-03-26T08:56:39.564Z,35.29
2023-03-26T09:00:39.541Z,38.34
2023-03-26T09:04:39.919Z,39.39
2023-03-26T09:08:53.605Z,36.39
2023-03-26T09:12:39.812Z,37.58
2023-03-26T09:16:39.828Z,37.92
2023-03-26T09:20:39.717Z,35.81
2023-03-26T09:24:39.916Z,35.23
2023-03-26T09:28:39.665Z,35.81
2023-03-26T09:32:39.656Z,36.82
2023-03-26T09:36:39.566Z,37.58
2023-03-26T09:40:39.648Z,37.43
2023-03-26T09:44:39.822Z,37.05
2023-03-26T09:48:39.969Z,35.05
2023-03-26T09:52:40.142Z,34.76
2023-03-26T09:56:40.367Z,36.44
2023-03-26T10:00:40.520Z,34.54
2023-03-26T10:04:40.674Z,36.17
2023-03-26T10:08:41.474Z,37.53
2023-03-26T10:12:40.994Z,35.86
2023-03-26T10:16:41.183Z,37.33
2023-03-26T10:20:41.309Z,39.38
2023-03-26T10:24:41.451Z,39.96
2023-03-26T10:28:41.932Z,38.88
2023-03-26T10:32:41.798Z,39.50
2023-03-26T10:36:41.912Z,39.90
2023-03-26T10:40:42.444Z,36.62
2023-03-26T10:44:42.248Z,38.01
2023-03-26T10:48:42.430Z,38.13
2023-03-26T10:52:42.577Z,37.86
2023-03-26T10:56:42.771Z,39.61
2023-03-26T11:00:42.922Z,35.44
2023-03-26T11:04:43.123Z,40.08
2023-03-26T11:08:43.320Z,38.80
2023-03-26T11:12:43.482Z,40.04
2023-03-26T11:16:43.661Z,39.66
2023-03-26T11:20:43.868Z,43.02
2023-03-26T11:24:44.018Z,40.92
2023-03-26T11:29:03.069Z,41.08
2023-03-26T11:32:44.980Z,39.94
2023-03-26T11:36:44.141Z,41.75
2023-03-26T11:40:44.078Z,38.08
2023-03-26T11:44:44.046Z,40.25
2023-03-26T11:48:44.137Z,39.59
2023-03-26T11:52:45.932Z,39.04
2023-03-26T11:57:05.619Z,41.04
2023-03-26T12:00:44.176Z,41.40
2023-03-26T12:04:44.647Z,41.81
2023-03-26T12:08:44.117Z,45.46
2023-03-26T12:12:44.057Z,43.51
2023-03-26T12:16:44.081Z,41.55
2023-03-26T12:20:43.987Z,40.70
2023-03-26T12:24:44.117Z,40.53
2023-03-26T12:28:44.660Z,41.14
2023-03-26T12:32:46.806Z,43.49
2023-03-26T12:36:44.653Z,42.85
2023-03-26T12:40:44.675Z,43.54
2023-03-26T12:44:59.148Z,39.44
2023-03-26T12:48:44.788Z,42.37
2023-03-26T12:52:44.668Z,45.34
2023-03-26T12:56:44.728Z,40.90
2023-03-26T13:00:44.680Z,42.40
2023-03-26T13:04:49.303Z,43.76
2023-03-26T13:08:44.134Z,43.54
2023-03-26T13:12:44.118Z,42.35
2023-03-26T13:16:44.114Z,42.51
2023-03-26T13:20:44.055Z,40.48
2023-03-26T13:24:43.996Z,42.61
2023-03-26T13:28:43.974Z,43.46
2023-03-26T13:32:43.938Z,40.11
2023-03-26T13:36:43.973Z,40.91
2023-03-26T13:40:44.165Z,43.90
2023-03-26T13:44:44.300Z,41.10
2023-03-26T13:48:45.001Z,43.11
2023-03-26T13:52:45.027Z,42.57
2023-03-26T13:56:44.876Z,37.58
2023-03-26T14:00:45.075Z,41.55
2023-03-26T14:04:45.222Z,39.81
2023-03-26T14:08:45.710Z,42.06
2023-03-26T14:12:45.722Z,42.08
2023-03-26T14:16:45.841Z,43.23
2023-03-26T14:20:46.012Z,40.86
2023-03-26T14:24:46.226Z,42.14
2023-03-26T14:28:46.440Z,40.35
2023-03-26T14:32:46.741Z,37.22
2023-03-26T14:36:46.884Z,42.40
2023-03-26T14:40:47.104Z,40.99
2023-03-26T14:44:48.730Z,38.73
2023-03-26T14:48:47.326Z,40.19
2023-03-26T14:52:47.250Z,39.52
2023-03-26T14:56:47.237Z,40.72
2023-03-26T15:00:47.206Z,36.91
2023-03-26T15:04:47.185Z,35.90
2023-03-26T15:08:47.098Z,38.96
2023-03-26T15:12:47.064Z,38.76
2023-03-26T15:16:47.268Z,38.35
2023-03-26T15:20:47.450Z,39.35
2023-03-26T15:24:47.617Z,40.19
2023-03-26T15:28:47.801Z,38.77
2023-03-26T15:32:48.017Z,40.55
2023-03-26T15:36:48.201Z,37.95
2023-03-26T15:40:48.389Z,36.95
2023-03-26T15:44:54.036Z,34.21
2023-03-26T15:48:48.525Z,35.53
2023-03-26T15:52:48.520Z,36.62
2023-03-26T15:56:48.549Z,37.17
2023-03-26T16:00:48.409Z,34.86
2023-03-26T16:04:50.478Z,36.27
2023-03-26T16:08:48.378Z,37.49
2023-03-26T16:12:48.556Z,35.05
2023-03-26T16:16:48.274Z,38.62
2023-03-26T16:20:49.049Z,37.45
2023-03-26T16:24:48.581Z,33.15
2023-03-26T16:28:48.339Z,33.57
2023-03-26T16:32:48.568Z,35.57
2023-03-26T16:40:47.980Z,35.18
2023-03-26T16:48:48.372Z,33.42
2023-03-26T16:56:48.801Z,37.79
2023-03-26T17:04:49.092Z,31.24
2023-03-26T17:12:49.485Z,32.41
2023-03-26T23:56:21.805Z,25.00
